PSG weather

Petersburg James A Johnson Airport
Petersburg, Alaska, United States

Public forecast

Using degrees Fahrenheit for public forecast. Weather courtesy of forecast.io.

METAR (pilot weather report)

Retrieved 2019/09/17 02:56 UTC (15 minutes ago):

PAPG 170256Z 00000KT 10SM -RA SCT050 OVC065 11/10 A2952 RMK AO2 SLP000 P0005 60013 T01060100 53003

TAF (pilot weather forecast)

Forecast is more than 12 hours old.

Retrieved 2019/09/16 00:28 UTC (1 day ago):

TAF PAPG 162326Z 1700/1724 12007KT P6SM -RA FEW005 SCT015 OVC040 FM170600 09004KT P6SM SCT015 BKN040 TEMPO 1713/1717 3SM BR AMD LTD TO CLD VIS AND WIND 1706/1715